Time;durP1;ratioP1;P1;durP2;ratioP2;P2;SDS_P1;SDS_P2;PMS_P1;PMS_P2;Temp;Humidity;BMP_temperature;BMP_pressure;BME280_temperature;BME280_humidity;BME280_pressure;Samples;Min_cycle;Max_cycle;Signal;HPM_P1;HPM_P2
2023/08/01 00:00:17;;;;;;;1.40;1.30;;;;;;;;;;4985574;28;20192;-56
2023/08/01 00:02:44;;;;;;;1.73;1.63;;;;;;;;;;4981580;28;20200;-57
2023/08/01 00:05:11;;;;;;;1.50;1.40;;;;;;;;;;4976742;28;20246;-57
2023/08/01 00:07:37;;;;;;;1.77;1.67;;;;;;;;;;4977036;28;20216;-56
2023/08/01 00:10:03;;;;;;;1.43;1.30;;;;;;;;;;4988017;28;20202;-56
2023/08/01 00:12:29;;;;;;;1.57;1.47;;;;;;;;;;4990019;28;20546;-57
2023/08/01 00:14:55;;;;;;;1.77;1.60;;;;;;;;;;4988605;28;20210;-54
2023/08/01 00:17:21;;;;;;;1.77;1.67;;;;;;;;;;4986727;28;20195;-54
2023/08/01 00:19:47;;;;;;;1.60;1.50;;;;;;;;;;4987400;28;20182;-54
2023/08/01 00:22:13;;;;;;;1.60;1.50;;;;;;;;;;4983243;28;20188;-54
2023/08/01 00:24:39;;;;;;;1.83;1.50;;;;;;;;;;4989387;28;20695;-54
2023/08/01 00:27:08;;;;;;;1.40;1.30;;;;;;;;;;4981546;28;20209;-54
2023/08/01 00:29:35;;;;;;;1.60;1.40;;;;;;;;;;4978589;28;20494;-54
2023/08/01 00:32:01;;;;;;;1.70;1.60;;;;;;;;;;4985096;28;20183;-55
2023/08/01 00:34:27;;;;;;;2.60;1.70;;;;;;;;;;4982444;28;20539;-53
2023/08/01 00:36:53;;;;;;;1.40;1.30;;;;;;;;;;4978714;28;20702;-53
2023/08/01 00:39:19;;;;;;;1.40;1.30;;;;;;;;;;4987951;28;20187;-54
2023/08/01 00:41:45;;;;;;;1.50;1.40;;;;;;;;;;4983740;28;20275;-53
2023/08/01 00:44:11;;;;;;;1.67;1.57;;;;;;;;;;4988935;28;20333;-53
2023/08/01 00:46:37;;;;;;;1.20;1.10;;;;;;;;;;4984002;28;20176;-53
2023/08/01 00:49:03;;;;;;;1.53;1.30;;;;;;;;;;4976860;28;20211;-54
2023/08/01 00:51:30;;;;;;;1.30;1.20;;;;;;;;;;4976491;28;20615;-52
2023/08/01 00:53:57;;;;;;;1.50;1.40;;;;;;;;;;4984618;28;20183;-53
2023/08/01 00:56:23;;;;;;;1.63;1.53;;;;;;;;;;4982505;28;20538;-54
2023/08/01 00:58:49;;;;;;;1.43;1.33;;;;;;;;;;4985802;28;20812;-53
2023/08/01 01:01:15;;;;;;;1.40;1.30;;;;;;;;;;4979440;28;20199;-54
2023/08/01 01:03:41;;;;;;;1.30;1.20;;;;;;;;;;4976768;28;20730;-54
2023/08/01 01:06:17;;;;;;;1.40;1.30;;;;;;;;;;4980750;28;20591;-53
2023/08/01 01:08:43;;;;;;;1.10;1.10;;;;;;;;;;4978082;28;20365;-53
2023/08/01 01:11:10;;;;;;;1.70;1.60;;;;;;;;;;4976651;28;20706;-54
2023/08/01 01:13:36;;;;;;;1.40;1.30;;;;;;;;;;4981289;28;20186;-53
2023/08/01 01:16:02;;;;;;;1.67;1.57;;;;;;;;;;4982481;28;20188;-52
2023/08/01 01:18:28;;;;;;;1.43;1.30;;;;;;;;;;4978977;28;20552;-53
2023/08/01 01:20:54;;;;;;;1.50;1.40;;;;;;;;;;4981625;28;20187;-52
2023/08/01 01:23:21;;;;;;;1.60;1.50;;;;;;;;;;4981099;28;20187;-53
2023/08/01 01:31:06;;;;;;;1.80;1.70;;;;;;;;;;4705726;23;20260;-55
2023/08/01 01:33:32;;;;;;;1.70;1.60;;;;;;;;;;5007080;28;20197;-55
2023/08/01 01:36:00;;;;;;;1.70;1.60;;;;;;;;;;5003832;28;20186;-55
2023/08/01 01:38:26;;;;;;;1.73;1.63;;;;;;;;;;5006635;28;20269;-55
2023/08/01 01:40:52;;;;;;;1.80;1.70;;;;;;;;;;5006775;28;20183;-55
2023/08/01 01:43:18;;;;;;;1.73;1.63;;;;;;;;;;5002964;28;20183;-55
2023/08/01 01:45:44;;;;;;;1.70;1.60;;;;;;;;;;5009056;28;20186;-55
2023/08/01 01:48:10;;;;;;;2.20;1.77;;;;;;;;;;5001832;28;20207;-55
2023/08/01 01:50:37;;;;;;;2.03;1.93;;;;;;;;;;5005110;28;20185;-55
2023/08/01 01:53:03;;;;;;;2.27;2.07;;;;;;;;;;4995889;28;20610;-58
2023/08/01 01:55:29;;;;;;;2.33;2.13;;;;;;;;;;5000447;28;20191;-55
2023/08/01 01:57:55;;;;;;;3.77;3.30;;;;;;;;;;4994034;28;20183;-55
2023/08/01 02:00:21;;;;;;;1.87;1.77;;;;;;;;;;4994792;28;20677;-56
2023/08/01 02:02:47;;;;;;;2.80;2.03;;;;;;;;;;4995868;28;20264;-55
2023/08/01 02:05:14;;;;;;;2.07;1.97;;;;;;;;;;5004380;28;20191;-55
2023/08/01 02:07:40;;;;;;;3.37;2.27;;;;;;;;;;5000548;28;20206;-55
2023/08/01 02:10:06;;;;;;;2.07;1.87;;;;;;;;;;4999845;28;20186;-55
2023/08/01 02:12:34;;;;;;;2.33;2.13;;;;;;;;;;5003628;28;20610;-55
2023/08/01 02:15:00;;;;;;;2.40;2.20;;;;;;;;;;4998561;28;20187;-55
2023/08/01 02:17:26;;;;;;;2.57;2.13;;;;;;;;;;4997486;28;20194;-55
2023/08/01 02:19:52;;;;;;;2.63;2.43;;;;;;;;;;4999475;28;22486;-55
2023/08/01 02:22:18;;;;;;;2.77;2.17;;;;;;;;;;4998473;28;20182;-55
2023/08/01 02:24:44;;;;;;;2.97;2.23;;;;;;;;;;5004769;28;20539;-55
2023/08/01 02:27:10;;;;;;;2.77;2.40;;;;;;;;;;4999762;28;20191;-55
2023/08/01 02:29:36;;;;;;;2.60;2.40;;;;;;;;;;5002269;28;20187;-55
2023/08/01 02:32:02;;;;;;;2.93;2.47;;;;;;;;;;4982775;28;20242;-55
2023/08/01 02:34:29;;;;;;;2.67;2.47;;;;;;;;;;4984903;28;20266;-55
2023/08/01 02:36:55;;;;;;;2.77;2.57;;;;;;;;;;4985178;28;20183;-55
2023/08/01 02:39:21;;;;;;;2.50;2.30;;;;;;;;;;4983438;28;20521;-55
2023/08/01 02:41:47;;;;;;;3.53;2.73;;;;;;;;;;4987945;28;20183;-55
2023/08/01 02:44:13;;;;;;;2.80;2.43;;;;;;;;;;4990236;28;20640;-55
2023/08/01 02:46:39;;;;;;;3.23;2.93;;;;;;;;;;4987355;28;20282;-55
2023/08/01 02:49:05;;;;;;;3.23;2.97;;;;;;;;;;4978500;28;20257;-55
2023/08/01 02:51:31;;;;;;;4.50;2.70;;;;;;;;;;4990398;28;20292;-56
2023/08/01 02:53:57;;;;;;;3.40;3.10;;;;;;;;;;4991837;28;20612;-55
2023/08/01 02:56:23;;;;;;;3.67;3.37;;;;;;;;;;4987459;28;20179;-55
2023/08/01 02:58:51;;;;;;;3.07;2.77;;;;;;;;;;4980930;28;20261;-55
2023/08/01 03:01:17;;;;;;;3.87;3.43;;;;;;;;;;4980033;28;20664;-55
2023/08/01 03:03:43;;;;;;;3.50;3.20;;;;;;;;;;4996255;28;20202;-55
2023/08/01 03:06:09;;;;;;;3.70;3.40;;;;;;;;;;4985925;28;20187;-56
2023/08/01 03:08:35;;;;;;;4.10;3.40;;;;;;;;;;4983159;28;20206;-56
2023/08/01 03:11:01;;;;;;;4.00;3.70;;;;;;;;;;4987744;28;20252;-56
2023/08/01 03:13:27;;;;;;;4.60;3.77;;;;;;;;;;4991009;28;20198;-56
2023/08/01 03:15:53;;;;;;;5.47;4.87;;;;;;;;;;4984421;28;20184;-55
2023/08/01 03:18:19;;;;;;;5.73;5.20;;;;;;;;;;4985625;28;20232;-55
2023/08/01 03:20:46;;;;;;;6.97;5.17;;;;;;;;;;4987020;28;20186;-55
2023/08/01 03:23:12;;;;;;;5.10;4.63;;;;;;;;;;4987246;28;20683;-55
2023/08/01 03:25:38;;;;;;;5.90;5.17;;;;;;;;;;4991718;28;20286;-55
2023/08/01 03:28:05;;;;;;;5.73;5.10;;;;;;;;;;4983590;28;20246;-55
2023/08/01 03:30:32;;;;;;;5.57;4.37;;;;;;;;;;4980935;28;20296;-55
2023/08/01 03:32:58;;;;;;;6.70;4.77;;;;;;;;;;4984603;28;20186;-55
2023/08/01 03:35:24;;;;;;;6.40;4.63;;;;;;;;;;4979822;28;20266;-55
2023/08/01 03:37:50;;;;;;;6.93;6.10;;;;;;;;;;4976455;28;20710;-55
2023/08/01 03:40:16;;;;;;;5.20;4.70;;;;;;;;;;4982721;28;20198;-55
2023/08/01 03:42:43;;;;;;;6.47;5.07;;;;;;;;;;4987315;28;20187;-55
2023/08/01 03:45:10;;;;;;;6.60;4.93;;;;;;;;;;4983974;28;20187;-55
2023/08/01 03:47:36;;;;;;;6.37;5.47;;;;;;;;;;4981952;28;20273;-55
2023/08/01 03:50:02;;;;;;;8.23;5.37;;;;;;;;;;4986702;28;20250;-55
2023/08/01 03:52:28;;;;;;;7.97;5.50;;;;;;;;;;4984708;28;20295;-55
2023/08/01 03:54:55;;;;;;;5.67;5.17;;;;;;;;;;4985483;28;20399;-55
2023/08/01 03:57:21;;;;;;;5.50;5.00;;;;;;;;;;4978341;28;20647;-54
2023/08/01 03:59:47;;;;;;;7.30;5.00;;;;;;;;;;4980016;28;20245;-54
2023/08/01 04:02:13;;;;;;;6.57;5.70;;;;;;;;;;4984998;28;20183;-55
2023/08/01 04:04:39;;;;;;;6.20;5.47;;;;;;;;;;4985844;28;20199;-55
2023/08/01 04:07:06;;;;;;;7.13;5.40;;;;;;;;;;4984567;28;20191;-55
2023/08/01 04:09:32;;;;;;;5.97;5.40;;;;;;;;;;4981999;28;20182;-55
2023/08/01 04:12:01;;;;;;;6.00;5.40;;;;;;;;;;4985352;28;20191;-55
2023/08/01 04:14:27;;;;;;;7.87;5.63;;;;;;;;;;4976441;28;20576;-54
2023/08/01 04:16:53;;;;;;;6.53;5.40;;;;;;;;;;4982797;28;20183;-54
2023/08/01 04:19:19;;;;;;;7.57;6.10;;;;;;;;;;4985952;28;20187;-54
2023/08/01 04:21:45;;;;;;;7.80;6.70;;;;;;;;;;4981943;28;20191;-55
2023/08/01 04:24:11;;;;;;;7.13;6.13;;;;;;;;;;4988415;28;20261;-55
2023/08/01 04:26:37;;;;;;;7.97;6.70;;;;;;;;;;4985495;28;20191;-55
2023/08/01 04:29:03;;;;;;;7.23;6.17;;;;;;;;;;4983098;28;20206;-55
2023/08/01 04:31:29;;;;;;;6.63;5.87;;;;;;;;;;4985642;28;20250;-55
2023/08/01 04:33:55;;;;;;;8.00;6.13;;;;;;;;;;4986555;28;20194;-55
2023/08/01 04:36:21;;;;;;;7.27;6.50;;;;;;;;;;4986559;28;20179;-55
2023/08/01 04:38:47;;;;;;;11.40;6.53;;;;;;;;;;4987468;28;20193;-55
2023/08/01 04:41:13;;;;;;;8.20;6.53;;;;;;;;;;4982036;28;20187;-55
2023/08/01 04:43:40;;;;;;;7.60;6.83;;;;;;;;;;4989805;28;20195;-54
2023/08/01 04:46:06;;;;;;;9.97;8.10;;;;;;;;;;4980750;28;20195;-54
2023/08/01 04:48:32;;;;;;;7.67;6.77;;;;;;;;;;4987546;28;20634;-55
2023/08/01 04:50:58;;;;;;;10.57;8.70;;;;;;;;;;4984493;28;20184;-55
2023/08/01 04:53:24;;;;;;;9.77;8.03;;;;;;;;;;4991356;28;20186;-55
2023/08/01 04:55:50;;;;;;;9.43;8.30;;;;;;;;;;4983040;28;20275;-54
2023/08/01 04:58:16;;;;;;;9.77;8.77;;;;;;;;;;4986970;28;20215;-55
2023/08/01 05:00:43;;;;;;;9.40;8.10;;;;;;;;;;4987611;28;20187;-55
2023/08/01 05:03:09;;;;;;;9.43;7.90;;;;;;;;;;4986385;28;20214;-55
2023/08/01 05:05:35;;;;;;;9.93;7.93;;;;;;;;;;4987544;28;20187;-55
2023/08/01 05:08:01;;;;;;;14.13;9.00;;;;;;;;;;4984592;28;20302;-55
2023/08/01 05:10:27;;;;;;;11.07;9.60;;;;;;;;;;4982377;28;20271;-55
2023/08/01 05:12:53;;;;;;;11.50;9.67;;;;;;;;;;5002864;28;20532;-55
2023/08/01 05:15:19;;;;;;;10.70;9.43;;;;;;;;;;4996057;28;20274;-54
2023/08/01 05:17:45;;;;;;;14.40;10.53;;;;;;;;;;4991158;28;20202;-56
2023/08/01 05:20:11;;;;;;;10.50;9.33;;;;;;;;;;4987632;28;21119;-53
2023/08/01 05:22:37;;;;;;;13.27;10.13;;;;;;;;;;4995444;28;21803;-52
2023/08/01 05:25:04;;;;;;;12.00;10.60;;;;;;;;;;4987908;28;20274;-52
2023/08/01 05:27:31;;;;;;;11.87;9.80;;;;;;;;;;5000233;28;20211;-52
2023/08/01 05:30:00;;;;;;;11.47;10.23;;;;;;;;;;4991024;28;20265;-54
2023/08/01 05:32:26;;;;;;;11.73;10.53;;;;;;;;;;4986883;28;20250;-51
2023/08/01 05:34:52;;;;;;;13.67;10.20;;;;;;;;;;4987163;28;20187;-51
2023/08/01 05:37:18;;;;;;;10.63;9.60;;;;;;;;;;4987212;28;20178;-52
2023/08/01 05:39:44;;;;;;;13.17;10.83;;;;;;;;;;4982886;28;20183;-51
2023/08/01 05:42:10;;;;;;;11.57;10.37;;;;;;;;;;4982246;28;20269;-52
2023/08/01 05:44:36;;;;;;;11.93;10.73;;;;;;;;;;4982325;28;20275;-51
2023/08/01 05:47:02;;;;;;;17.90;12.93;;;;;;;;;;4982432;28;20198;-54
2023/08/01 05:49:29;;;;;;;15.13;11.13;;;;;;;;;;4982168;28;20233;-52
2023/08/01 05:51:55;;;;;;;11.73;10.60;;;;;;;;;;4984457;28;20183;-51
2023/08/01 05:54:22;;;;;;;12.70;11.17;;;;;;;;;;4986312;28;20270;-52
2023/08/01 05:56:48;;;;;;;12.17;10.50;;;;;;;;;;4983918;28;20187;-51
2023/08/01 05:59:14;;;;;;;12.17;10.50;;;;;;;;;;4976057;28;20556;-51
2023/08/01 06:01:40;;;;;;;13.70;12.03;;;;;;;;;;4986215;28;20191;-51
2023/08/01 06:04:06;;;;;;;14.33;10.80;;;;;;;;;;4988827;28;20183;-52
2023/08/01 06:06:32;;;;;;;16.07;11.20;;;;;;;;;;4978874;28;20690;-51
2023/08/01 06:08:58;;;;;;;11.80;10.60;;;;;;;;;;4976409;28;20206;-51
2023/08/01 06:11:26;;;;;;;12.17;10.60;;;;;;;;;;4981873;28;20183;-51
2023/08/01 06:13:53;;;;;;;11.87;10.60;;;;;;;;;;4987769;28;20183;-52
2023/08/01 06:16:19;;;;;;;11.60;10.50;;;;;;;;;;4983995;28;20187;-51
2023/08/01 06:18:45;;;;;;;12.17;10.77;;;;;;;;;;4983577;28;20183;-51
2023/08/01 06:21:11;;;;;;;14.90;10.43;;;;;;;;;;4988173;28;20179;-51
2023/08/01 06:23:37;;;;;;;14.60;10.23;;;;;;;;;;4989142;28;20191;-51
2023/08/01 06:26:03;;;;;;;12.00;9.93;;;;;;;;;;4976570;28;20591;-51
2023/08/01 06:28:29;;;;;;;12.93;10.00;;;;;;;;;;4986440;28;20208;-51
2023/08/01 06:30:55;;;;;;;11.93;10.20;;;;;;;;;;4986313;28;20227;-51
2023/08/01 06:33:22;;;;;;;11.83;9.73;;;;;;;;;;4976371;28;20642;-51
2023/08/01 06:35:48;;;;;;;13.70;9.60;;;;;;;;;;4987511;28;20189;-51
2023/08/01 06:38:14;;;;;;;14.17;10.33;;;;;;;;;;4982539;28;20253;-51
2023/08/01 06:40:40;;;;;;;11.87;10.03;;;;;;;;;;4988875;28;20630;-50
2023/08/01 06:43:06;;;;;;;11.77;10.53;;;;;;;;;;4983064;28;20200;-50
2023/08/01 06:45:32;;;;;;;12.10;10.60;;;;;;;;;;4980909;28;20222;-51
2023/08/01 06:47:58;;;;;;;13.43;10.00;;;;;;;;;;4983098;28;20262;-52
2023/08/01 06:50:24;;;;;;;10.43;9.20;;;;;;;;;;4978108;28;20183;-51
2023/08/01 06:52:50;;;;;;;10.63;9.30;;;;;;;;;;4977586;28;20183;-51
2023/08/01 06:55:19;;;;;;;14.33;11.33;;;;;;;;;;4976766;28;20176;-51
2023/08/01 06:57:46;;;;;;;12.70;10.17;;;;;;;;;;4981641;28;20369;-51
2023/08/01 07:00:12;;;;;;;10.20;9.03;;;;;;;;;;4979115;28;20265;-51
2023/08/01 07:02:38;;;;;;;10.17;9.13;;;;;;;;;;4973619;28;20199;-51
2023/08/01 07:05:04;;;;;;;12.80;9.17;;;;;;;;;;4980337;28;20182;-51
2023/08/01 07:07:31;;;;;;;11.47;9.20;;;;;;;;;;4986449;28;20209;-51
2023/08/01 07:10:00;;;;;;;11.73;8.77;;;;;;;;;;4980189;28;20195;-51
2023/08/01 07:12:26;;;;;;;12.63;8.30;;;;;;;;;;4985770;28;21118;-51
2023/08/01 07:14:52;;;;;;;11.03;8.90;;;;;;;;;;4983972;28;20191;-51
2023/08/01 07:17:19;;;;;;;11.70;8.97;;;;;;;;;;4982264;28;20184;-51
2023/08/01 07:19:45;;;;;;;10.63;9.33;;;;;;;;;;4982701;28;20740;-51
2023/08/01 07:22:11;;;;;;;10.50;8.63;;;;;;;;;;4997563;28;20179;-51
2023/08/01 07:24:37;;;;;;;9.67;8.67;;;;;;;;;;4977505;28;20454;-51
2023/08/01 07:27:04;;;;;;;10.63;9.52;;;;;;;;;;4985177;28;20475;-51
2023/08/01 07:29:30;;;;;;;10.77;8.43;;;;;;;;;;4984725;28;20207;-52
2023/08/01 07:31:56;;;;;;;10.70;8.23;;;;;;;;;;4988165;28;20230;-51
2023/08/01 07:34:22;;;;;;;12.13;8.70;;;;;;;;;;4984786;28;20183;-51
2023/08/01 07:36:49;;;;;;;12.97;9.27;;;;;;;;;;4988148;28;20180;-51
2023/08/01 07:39:15;;;;;;;11.33;8.47;;;;;;;;;;4981072;28;20186;-51
2023/08/01 07:41:41;;;;;;;9.93;8.03;;;;;;;;;;4982111;28;20221;-50
2023/08/01 07:44:07;;;;;;;9.27;7.83;;;;;;;;;;4985404;28;20191;-51
2023/08/01 07:46:33;;;;;;;13.13;9.13;;;;;;;;;;4977131;28;20202;-51
2023/08/01 07:48:59;;;;;;;10.30;8.63;;;;;;;;;;4979974;28;20226;-51
2023/08/01 07:51:26;;;;;;;10.77;9.33;;;;;;;;;;4982271;28;20171;-50
2023/08/01 07:53:52;;;;;;;15.73;8.67;;;;;;;;;;4976151;28;20210;-50
2023/08/01 07:56:18;;;;;;;11.07;9.77;;;;;;;;;;4980687;28;20521;-50
2023/08/01 07:58:44;;;;;;;14.03;10.30;;;;;;;;;;4982611;28;20188;-50
2023/08/01 08:01:10;;;;;;;13.17;9.87;;;;;;;;;;4989205;28;20186;-53
2023/08/01 08:03:36;;;;;;;13.50;9.87;;;;;;;;;;4982292;28;20709;-53
2023/08/01 08:06:03;;;;;;;13.80;10.27;;;;;;;;;;4980876;28;20187;-53
2023/08/01 08:08:29;;;;;;;11.33;9.97;;;;;;;;;;4982134;28;20211;-52
2023/08/01 08:10:56;;;;;;;12.17;9.67;;;;;;;;;;4982187;28;20545;-53
2023/08/01 08:13:22;;;;;;;11.33;9.90;;;;;;;;;;4978839;28;20187;-53
2023/08/01 08:15:48;;;;;;;12.60;8.80;;;;;;;;;;4982627;28;20188;-53
2023/08/01 08:18:14;;;;;;;10.73;8.47;;;;;;;;;;4982037;28;20199;-53
2023/08/01 08:20:44;;;;;;;15.63;9.83;;;;;;;;;;4979476;28;20244;-53
2023/08/01 08:23:10;;;;;;;11.97;9.00;;;;;;;;;;4985259;28;20179;-53
2023/08/01 08:25:37;;;;;;;15.63;8.70;;;;;;;;;;4983654;28;20195;-53
2023/08/01 08:28:03;;;;;;;9.87;8.17;;;;;;;;;;4980129;28;20678;-52
2023/08/01 08:30:29;;;;;;;11.93;8.63;;;;;;;;;;4978847;28;20278;-53
2023/08/01 08:32:55;;;;;;;10.97;8.17;;;;;;;;;;4983454;28;20273;-53
2023/08/01 08:35:21;;;;;;;9.07;7.50;;;;;;;;;;4979922;28;20677;-53
2023/08/01 08:37:47;;;;;;;13.40;7.27;;;;;;;;;;4985348;28;20273;-53
2023/08/01 08:40:14;;;;;;;7.80;7.00;;;;;;;;;;4977576;28;20272;-51
2023/08/01 08:42:40;;;;;;;10.83;7.10;;;;;;;;;;4978111;28;20246;-52
2023/08/01 08:45:07;;;;;;;10.27;6.30;;;;;;;;;;4976405;28;20219;-52
2023/08/01 08:47:36;;;;;;;9.47;6.93;;;;;;;;;;4976757;28;20350;-52
2023/08/01 08:50:03;;;;;;;10.00;7.13;;;;;;;;;;4974779;28;20214;-52
2023/08/01 08:52:29;;;;;;;9.00;6.90;;;;;;;;;;4979552;28;20277;-52
2023/08/01 08:54:56;;;;;;;8.60;6.67;;;;;;;;;;4978294;28;20176;-52
2023/08/01 08:57:23;;;;;;;9.30;6.77;;;;;;;;;;4974486;28;22013;-52
2023/08/01 08:59:50;;;;;;;10.17;7.30;;;;;;;;;;4975927;28;20607;-52
2023/08/01 09:02:17;;;;;;;8.03;6.60;;;;;;;;;;4977434;28;20242;-52
2023/08/01 09:04:43;;;;;;;7.10;6.27;;;;;;;;;;4978391;28;20608;-52
2023/08/01 09:07:11;;;;;;;7.20;6.30;;;;;;;;;;4970489;28;20402;-54
2023/08/01 09:09:37;;;;;;;7.67;5.93;;;;;;;;;;4972262;28;20345;-52
2023/08/01 09:12:03;;;;;;;8.37;5.90;;;;;;;;;;4973111;28;20656;-50
2023/08/01 09:14:32;;;;;;;11.17;7.07;;;;;;;;;;4974802;28;20191;-51
2023/08/01 09:17:06;;;;;;;8.43;6.10;;;;;;;;;;4977841;28;20679;-51
2023/08/01 09:19:32;;;;;;;9.87;6.73;;;;;;;;;;4975529;28;20191;-50
2023/08/01 09:21:59;;;;;;;10.63;6.57;;;;;;;;;;4976203;28;20188;-49
2023/08/01 09:24:25;;;;;;;7.70;5.87;;;;;;;;;;4978620;28;20211;-51
2023/08/01 09:26:51;;;;;;;8.80;5.90;;;;;;;;;;4977473;28;20265;-50
2023/08/01 09:29:17;;;;;;;8.03;5.63;;;;;;;;;;4979830;28;20597;-50
2023/08/01 09:31:43;;;;;;;8.13;5.43;;;;;;;;;;4975529;28;20246;-51
2023/08/01 09:34:19;;;;;;;7.23;4.63;;;;;;;;;;4976351;28;20185;-51
2023/08/01 09:36:46;;;;;;;9.33;5.90;;;;;;;;;;4978054;28;20183;-52
2023/08/01 09:39:16;;;;;;;9.03;6.27;;;;;;;;;;4976394;28;20211;-51
2023/08/01 09:41:42;;;;;;;10.30;6.37;;;;;;;;;;4973830;28;20179;-50
2023/08/01 09:44:12;;;;;;;9.23;5.70;;;;;;;;;;4977853;28;20643;-51
2023/08/01 09:46:38;;;;;;;7.07;6.27;;;;;;;;;;4974579;28;20555;-51
2023/08/01 09:49:08;;;;;;;7.37;5.27;;;;;;;;;;4975230;28;20211;-50
2023/08/01 09:51:34;;;;;;;11.27;6.07;;;;;;;;;;4980329;28;20664;-51
2023/08/01 09:54:00;;;;;;;5.77;4.93;;;;;;;;;;4982722;28;20542;-51
2023/08/01 09:56:27;;;;;;;6.93;5.33;;;;;;;;;;4973536;28;20187;-52
2023/08/01 09:58:55;;;;;;;6.77;5.10;;;;;;;;;;4974330;28;20187;-52
2023/08/01 10:01:22;;;;;;;6.50;5.30;;;;;;;;;;4980881;28;20186;-51
2023/08/01 10:03:51;;;;;;;8.43;5.90;;;;;;;;;;4973987;28;20184;-51
2023/08/01 10:06:21;;;;;;;11.33;6.43;;;;;;;;;;4976714;28;20615;-51
2023/08/01 10:08:48;;;;;;;11.20;6.10;;;;;;;;;;4975437;28;20200;-51
2023/08/01 10:11:17;;;;;;;9.80;6.07;;;;;;;;;;4977277;28;20674;-52
2023/08/01 10:13:44;;;;;;;7.83;6.17;;;;;;;;;;4976916;28;20183;-50
2023/08/01 10:16:10;;;;;;;6.57;5.77;;;;;;;;;;4976992;28;20589;-51
2023/08/01 10:18:37;;;;;;;9.97;5.57;;;;;;;;;;4978034;28;20195;-51
2023/08/01 10:21:04;;;;;;;8.10;5.60;;;;;;;;;;4976194;28;20254;-52
2023/08/01 10:23:31;;;;;;;7.47;6.30;;;;;;;;;;4976007;28;20624;-50
2023/08/01 10:25:57;;;;;;;6.63;5.57;;;;;;;;;;4976298;28;20545;-53
2023/08/01 10:28:32;;;;;;;6.87;5.30;;;;;;;;;;4977780;28;20247;-54
2023/08/01 10:31:12;;;;;;;7.30;5.50;;;;;;;;;;4976915;28;20231;-53
2023/08/01 10:33:39;;;;;;;11.63;6.20;;;;;;;;;;4976347;28;20179;-53
2023/08/01 10:36:32;;;;;;;7.53;5.73;;;;;;;;;;4976165;28;20640;-53
2023/08/01 10:38:59;;;;;;;7.60;5.83;;;;;;;;;;4973792;28;20194;-55
2023/08/01 10:41:25;;;;;;;7.73;6.23;;;;;;;;;;4976581;28;20613;-54
2023/08/01 10:43:51;;;;;;;7.07;5.53;;;;;;;;;;4978146;28;20202;-56
2023/08/01 10:46:17;;;;;;;6.37;5.40;;;;;;;;;;4975510;28;20705;-56
2023/08/01 10:48:53;;;;;;;6.67;5.30;;;;;;;;;;4974188;28;20301;-56
2023/08/01 10:51:19;;;;;;;7.00;4.57;;;;;;;;;;4980669;28;20187;-56
2023/08/01 10:53:46;;;;;;;9.57;5.17;;;;;;;;;;4980228;28;20187;-55
2023/08/01 10:56:17;;;;;;;7.80;5.37;;;;;;;;;;4979058;28;20645;-55
2023/08/01 10:58:43;;;;;;;8.70;5.27;;;;;;;;;;4982422;28;20195;-55
2023/08/01 11:01:09;;;;;;;8.40;5.60;;;;;;;;;;4981230;28;20194;-55
2023/08/01 11:03:36;;;;;;;10.07;5.67;;;;;;;;;;4981634;28;20194;-56
2023/08/01 11:06:03;;;;;;;8.03;5.13;;;;;;;;;;4981243;28;20191;-55
2023/08/01 11:08:39;;;;;;;5.63;5.03;;;;;;;;;;4983006;28;20675;-56
2023/08/01 11:11:06;;;;;;;6.50;5.77;;;;;;;;;;4979050;28;20179;-56
2023/08/01 11:13:34;;;;;;;8.93;6.00;;;;;;;;;;4980561;28;20195;-55
2023/08/01 11:16:01;;;;;;;9.90;6.30;;;;;;;;;;4976695;28;20520;-55
2023/08/01 11:18:27;;;;;;;7.93;6.07;;;;;;;;;;4979047;28;20195;-55
2023/08/01 11:20:53;;;;;;;7.23;5.73;;;;;;;;;;4980555;28;20176;-55
2023/08/01 11:23:19;;;;;;;7.43;5.67;;;;;;;;;;4983285;28;20200;-55
2023/08/01 11:25:50;;;;;;;8.87;5.33;;;;;;;;;;4981231;28;20578;-55
2023/08/01 11:28:17;;;;;;;5.43;4.40;;;;;;;;;;4981001;28;20211;-55
2023/08/01 11:30:45;;;;;;;5.47;4.50;;;;;;;;;;4977614;28;20269;-55
2023/08/01 11:33:21;;;;;;;4.83;3.90;;;;;;;;;;4980020;28;20187;-52
2023/08/01 11:35:59;;;;;;;6.10;4.07;;;;;;;;;;4980968;28;20187;-53
2023/08/01 11:38:29;;;;;;;4.20;3.63;;;;;;;;;;4970524;28;20195;-53
2023/08/01 11:40:55;;;;;;;4.20;3.63;;;;;;;;;;4977785;28;20211;-53
2023/08/01 11:43:21;;;;;;;6.43;4.07;;;;;;;;;;4981426;28;20187;-52
2023/08/01 11:45:51;;;;;;;7.70;3.87;;;;;;;;;;4979673;28;20213;-53
2023/08/01 11:48:18;;;;;;;6.00;3.80;;;;;;;;;;4976819;28;20236;-53
2023/08/01 11:50:44;;;;;;;7.00;4.03;;;;;;;;;;4982482;28;20194;-53
2023/08/01 11:53:22;;;;;;;3.87;3.13;;;;;;;;;;4980952;28;20624;-53
2023/08/01 11:55:49;;;;;;;4.47;3.57;;;;;;;;;;4980389;28;20650;-53
2023/08/01 11:58:15;;;;;;;6.27;3.50;;;;;;;;;;4982041;28;20198;-53
2023/08/01 12:00:42;;;;;;;5.00;3.53;;;;;;;;;;4979146;28;20183;-53
2023/08/01 12:03:13;;;;;;;4.23;3.73;;;;;;;;;;4980835;28;20195;-52
2023/08/01 12:05:41;;;;;;;5.77;3.80;;;;;;;;;;4981358;28;20668;-53
2023/08/01 12:08:11;;;;;;;10.07;5.77;;;;;;;;;;4979731;28;20219;-56
2023/08/01 12:10:38;;;;;;;5.03;3.43;;;;;;;;;;4979334;28;20187;-53
2023/08/01 12:13:04;;;;;;;4.00;3.60;;;;;;;;;;4977914;28;20191;-52
2023/08/01 12:15:30;;;;;;;5.30;3.70;;;;;;;;;;4977384;28;20222;-52
2023/08/01 12:17:57;;;;;;;6.17;4.43;;;;;;;;;;4987429;28;20179;-52
2023/08/01 12:20:23;;;;;;;5.97;3.70;;;;;;;;;;4983543;28;20221;-52
2023/08/01 12:22:49;;;;;;;5.40;3.47;;;;;;;;;;4974988;28;20517;-52
2023/08/01 12:25:15;;;;;;;5.23;3.87;;;;;;;;;;4979254;28;20234;-52
2023/08/01 12:27:41;;;;;;;5.63;3.50;;;;;;;;;;4980962;28;20265;-52
2023/08/01 12:30:08;;;;;;;3.90;3.50;;;;;;;;;;4979596;28;20234;-53
2023/08/01 12:32:37;;;;;;;5.60;4.10;;;;;;;;;;4983579;28;20744;-53
2023/08/01 12:35:03;;;;;;;4.50;3.20;;;;;;;;;;4984363;28;20530;-51
2023/08/01 12:37:29;;;;;;;4.37;3.70;;;;;;;;;;4976061;28;20274;-52
2023/08/01 12:39:55;;;;;;;4.33;3.40;;;;;;;;;;4982365;28;20196;-52
2023/08/01 12:42:22;;;;;;;3.97;3.10;;;;;;;;;;4982355;28;20635;-55
2023/08/01 12:44:48;;;;;;;5.20;3.27;;;;;;;;;;4982545;28;20270;-56
2023/08/01 12:47:14;;;;;;;4.37;2.80;;;;;;;;;;4982616;28;20190;-55
2023/08/01 12:49:40;;;;;;;3.97;3.00;;;;;;;;;;4979881;28;20203;-55
2023/08/01 12:52:06;;;;;;;3.50;3.20;;;;;;;;;;4976500;28;20293;-55
2023/08/01 12:54:32;;;;;;;4.13;3.17;;;;;;;;;;4977775;28;20278;-55
2023/08/01 12:56:58;;;;;;;3.73;3.13;;;;;;;;;;4980544;28;20303;-54
2023/08/01 12:59:24;;;;;;;3.67;3.17;;;;;;;;;;4983333;28;20717;-54
2023/08/01 13:01:50;;;;;;;5.93;3.70;;;;;;;;;;4983120;28;20179;-54
2023/08/01 13:04:16;;;;;;;6.53;4.20;;;;;;;;;;4976879;28;20446;-54
2023/08/01 13:06:42;;;;;;;3.70;2.93;;;;;;;;;;4979604;28;20187;-54
2023/08/01 13:09:08;;;;;;;3.50;3.20;;;;;;;;;;4978996;28;20211;-53
2023/08/01 13:11:34;;;;;;;6.97;3.20;;;;;;;;;;4977365;28;20187;-54
2023/08/01 13:14:00;;;;;;;3.40;3.10;;;;;;;;;;4976158;28;20175;-54
2023/08/01 13:16:26;;;;;;;4.03;3.03;;;;;;;;;;4982138;28;20179;-54
2023/08/01 13:18:52;;;;;;;6.50;3.13;;;;;;;;;;4980558;28;20190;-54
2023/08/01 13:21:18;;;;;;;4.00;3.30;;;;;;;;;;4979051;28;21545;-54
2023/08/01 13:23:44;;;;;;;3.50;3.20;;;;;;;;;;4984282;28;20273;-54
2023/08/01 13:26:10;;;;;;;5.43;3.37;;;;;;;;;;4984400;28;20187;-54
2023/08/01 13:28:37;;;;;;;8.30;3.37;;;;;;;;;;4983247;28;20514;-54
2023/08/01 13:31:03;;;;;;;7.13;3.40;;;;;;;;;;4980736;28;20702;-55
2023/08/01 13:33:29;;;;;;;7.83;4.13;;;;;;;;;;4982217;28;20269;-54
2023/08/01 13:35:57;;;;;;;7.03;3.27;;;;;;;;;;4977967;28;20186;-51
2023/08/01 13:38:23;;;;;;;11.00;3.40;;;;;;;;;;4981559;28;20187;-55
2023/08/01 13:40:49;;;;;;;6.80;3.23;;;;;;;;;;4986071;28;20186;-55
2023/08/01 13:43:16;;;;;;;7.43;3.80;;;;;;;;;;4980337;28;20245;-54
2023/08/01 13:45:42;;;;;;;5.97;3.43;;;;;;;;;;4984040;28;20694;-55
2023/08/01 13:48:08;;;;;;;5.80;3.07;;;;;;;;;;4984713;28;20651;-55
2023/08/01 13:50:34;;;;;;;6.53;3.40;;;;;;;;;;4987617;28;20653;-54
2023/08/01 13:53:01;;;;;;;5.27;3.30;;;;;;;;;;4983840;28;20172;-60
2023/08/01 13:55:27;;;;;;;7.33;2.97;;;;;;;;;;4977884;28;20192;-55
2023/08/01 13:57:53;;;;;;;7.13;3.17;;;;;;;;;;4986110;28;20187;-57
2023/08/01 14:00:20;;;;;;;6.33;2.93;;;;;;;;;;4982654;28;20186;-56
2023/08/01 14:02:46;;;;;;;4.53;2.30;;;;;;;;;;4987045;28;20180;-56
2023/08/01 14:05:12;;;;;;;6.07;2.73;;;;;;;;;;4988178;28;20647;-55
2023/08/01 14:07:38;;;;;;;5.93;3.03;;;;;;;;;;4986814;28;20192;-56
2023/08/01 14:10:04;;;;;;;6.67;3.00;;;;;;;;;;4986216;28;20187;-55
2023/08/01 14:12:31;;;;;;;6.33;3.10;;;;;;;;;;5004246;28;20756;-56
2023/08/01 14:14:57;;;;;;;4.90;2.80;;;;;;;;;;4985597;28;20187;-56
2023/08/01 14:17:23;;;;;;;10.83;2.57;;;;;;;;;;4986242;28;20583;-56
2023/08/01 14:19:49;;;;;;;6.67;3.00;;;;;;;;;;4988088;28;20187;-56
2023/08/01 14:22:15;;;;;;;6.33;2.83;;;;;;;;;;4984686;28;20202;-55
2023/08/01 14:24:42;;;;;;;4.17;2.67;;;;;;;;;;4990754;28;20188;-56
2023/08/01 14:27:09;;;;;;;5.97;2.97;;;;;;;;;;4987411;28;20188;-56
2023/08/01 14:29:35;;;;;;;5.77;2.67;;;;;;;;;;4977025;28;20604;-55
2023/08/01 14:32:01;;;;;;;5.63;2.90;;;;;;;;;;4982991;28;20228;-56
2023/08/01 14:34:28;;;;;;;4.77;2.57;;;;;;;;;;4976445;28;20777;-55
2023/08/01 14:36:54;;;;;;;5.07;2.70;;;;;;;;;;4973661;28;20214;-55
2023/08/01 14:39:20;;;;;;;4.23;3.17;;;;;;;;;;4983423;28;20217;-55